Time;durP1;ratioP1;P1;durP2;ratioP2;P2;SDS_P1;SDS_P2;PMS_P1;PMS_P2;Temp;Humidity;BMP_temperature;BMP_pressure;BME280_temperature;BME280_humidity;BME280_pressure;Samples;Min_cycle;Max_cycle;Signal;HPM_P1;HPM_P2
2023/07/20 00:00:57;;;;;;;;;4.80;4.00;;;;;19.85;67.97;98795.50;5086692;28;8878;-78
2023/07/20 00:03:32;;;;;;;;;4.20;4.20;;;;;20.08;67.92;98794.72;5070710;28;8891;-79
2023/07/20 00:06:04;;;;;;;;;4.00;4.00;;;;;20.24;67.17;98788.28;5086900;28;8851;-78
2023/07/20 00:08:32;;;;;;;;;5.00;5.00;;;;;20.34;66.57;98791.13;5069754;28;8924;-79
2023/07/20 00:11:01;;;;;;;;;5.40;5.00;;;;;20.56;66.91;98795.69;5068974;28;8846;-79
2023/07/20 00:13:30;;;;;;;;;6.80;5.60;;;;;20.78;66.84;98798.47;5068961;28;8854;-79
2023/07/20 00:15:59;;;;;;;;;4.60;4.60;;;;;20.92;66.20;98801.94;5068659;28;8983;-78
2023/07/20 00:18:27;;;;;;;;;5.00;5.00;;;;;20.98;64.63;98807.69;5072072;28;8850;-78
2023/07/20 00:20:56;;;;;;;;;5.00;5.00;;;;;21.05;64.80;98790.22;5069817;28;9624;-79
2023/07/20 00:23:26;;;;;;;;;4.80;4.80;;;;;21.02;64.40;98787.78;5076387;28;8844;-78
2023/07/20 00:25:55;;;;;;;;;5.00;4.00;;;;;21.23;65.06;98782.59;5088488;28;8863;-79
2023/07/20 00:28:23;;;;;;;;;4.80;4.80;;;;;21.36;64.29;98770.97;5087473;28;8879;-78
2023/07/20 00:30:52;;;;;;;;;5.20;4.40;;;;;21.35;62.35;98777.28;5104225;28;8856;-79
2023/07/20 00:33:21;;;;;;;;;5.00;4.20;;;;;21.17;61.14;98774.22;5067516;28;8846;-78
2023/07/20 00:35:50;;;;;;;;;4.80;4.60;;;;;20.88;62.37;98790.63;5068742;28;8851;-78
2023/07/20 00:38:19;;;;;;;;;5.40;5.40;;;;;21.09;63.56;98771.28;5015754;28;10085;-78
2023/07/20 00:40:50;;;;;;;;;4.00;4.00;;;;;21.27;63.82;98775.19;5087464;28;8870;-79
2023/07/20 00:43:20;;;;;;;;;5.00;4.20;;;;;21.36;64.64;98774.47;5104518;28;8866;-79
2023/07/20 00:45:50;;;;;;;;;5.80;5.80;;;;;21.39;64.46;98758.22;5061834;28;8870;-79
2023/07/20 00:48:19;;;;;;;;;6.00;6.00;;;;;21.40;62.88;98767.06;5067734;28;8850;-79
2023/07/20 00:50:48;;;;;;;;;7.20;6.40;;;;;21.51;64.66;98755.53;5033757;28;8865;-79
2023/07/20 00:53:18;;;;;;;;;7.00;6.00;;;;;21.56;64.96;98759.56;5050521;28;8900;-78
2023/07/20 00:55:47;;;;;;;;;5.40;5.40;;;;;21.62;64.80;98755.56;5080114;28;9017;-78
2023/07/20 00:58:17;;;;;;;;;6.00;5.40;;;;;21.70;65.44;98753.13;5091632;28;8966;-78
2023/07/20 01:00:46;;;;;;;;;5.80;5.20;;;;;21.74;65.22;98757.25;5108186;28;8870;-80
2023/07/20 01:03:15;;;;;;;;;7.00;7.00;;;;;21.76;66.85;98749.94;5083815;28;8985;-78
2023/07/20 01:05:55;;;;;;;;;9.40;9.40;;;;;21.96;65.32;98743.00;5049458;28;8892;-77
2023/07/20 01:08:33;;;;;;;;;10.40;8.60;;;;;21.86;64.08;98743.88;5050709;28;9780;-79
2023/07/20 01:11:07;;;;;;;;;8.20;8.20;;;;;21.83;65.42;98751.16;5032978;28;8839;-78
2023/07/20 01:13:38;;;;;;;;;10.00;8.20;;;;;21.81;64.73;98750.44;5104048;28;8859;-78
2023/07/20 01:16:07;;;;;;;;;6.60;6.60;;;;;21.82;65.50;98745.94;5088675;28;8870;-78
2023/07/20 01:18:36;;;;;;;;;7.00;6.40;;;;;21.80;63.83;98748.72;5097703;28;8844;-79
2023/07/20 01:21:13;;;;;;;;;7.60;7.60;;;;;21.88;63.61;98755.28;5064876;28;8865;-79
2023/07/20 01:24:23;;;;;;;;;7.60;7.40;;;;;21.98;64.32;98770.47;5060883;28;8900;-81
2023/07/20 01:27:09;;;;;;;;;6.80;6.20;;;;;22.05;64.24;98768.16;4980782;28;9611;-79
2023/07/20 01:30:05;;;;;;;;;9.00;8.00;;;;;22.19;65.17;98767.03;4973800;28;8857;-79
2023/07/20 01:32:37;;;;;;;;;5.60;5.40;;;;;22.03;64.51;98770.09;4953513;28;8888;-77
2023/07/20 01:35:08;;;;;;;;;8.60;8.60;;;;;22.00;65.26;98765.00;4924086;28;8873;-78
2023/07/20 01:37:39;;;;;;;;;9.20;9.20;;;;;21.88;63.18;98772.22;4998098;28;8994;-79
2023/07/20 01:40:10;;;;;;;;;5.20;5.00;;;;;21.42;63.43;98770.47;5025496;28;8840;-78
2023/07/20 01:42:39;;;;;;;;;7.00;7.00;;;;;21.54;64.23;98774.00;4946212;28;8839;-81
2023/07/20 01:45:09;;;;;;;;;9.20;8.00;;;;;21.54;64.84;98766.84;5010016;28;8867;-80
2023/07/20 01:47:39;;;;;;;;;8.80;8.80;;;;;21.66;65.42;98761.53;5016103;28;8844;-78
2023/07/20 01:50:09;;;;;;;;;10.60;8.40;;;;;21.73;65.59;98760.91;4989751;28;8878;-79
2023/07/20 01:52:38;;;;;;;;;5.00;5.00;;;;;21.75;65.59;98761.63;4973662;28;8945;-78
2023/07/20 01:55:07;;;;;;;;;13.20;13.00;;;;;21.61;63.94;98770.75;5004572;28;8909;-79
2023/07/20 01:57:37;;;;;;;;;16.20;15.40;;;;;21.64;64.62;98762.50;4961286;28;8879;-78
2023/07/20 02:00:08;;;;;;;;;9.00;7.60;;;;;21.58;63.33;98765.63;5009274;28;8864;-79
2023/07/20 02:02:45;;;;;;;;;5.00;5.00;;;;;21.34;62.50;98765.72;5024515;28;8952;-78
2023/07/20 02:05:14;;;;;;;;;6.60;6.60;;;;;21.25;62.76;98761.09;5036631;28;8882;-78
2023/07/20 02:07:43;;;;;;;;;6.80;5.80;;;;;21.12;63.72;98760.34;5071213;28;8827;-78
2023/07/20 02:10:12;;;;;;;;;7.60;7.00;;;;;21.00;63.67;98771.03;5035196;28;9738;-77
2023/07/20 02:12:41;;;;;;;;;7.20;7.20;;;;;21.02;65.38;98771.75;5049721;28;8869;-77
2023/07/20 02:15:11;;;;;;;;;8.60;7.40;;;;;20.92;65.63;98770.75;5049711;28;8930;-77
2023/07/20 02:17:41;;;;;;;;;7.00;7.00;;;;;20.92;65.58;98772.56;5049851;28;8967;-77
2023/07/20 02:20:12;;;;;;;;;8.00;8.00;;;;;20.84;65.67;98773.13;5037521;28;8852;-77
2023/07/20 02:22:41;;;;;;;;;10.40;8.40;;;;;20.80;65.86;98768.97;5071666;28;8836;-78
2023/07/20 02:25:10;;;;;;;;;6.80;6.40;;;;;20.70;66.71;98766.16;5071268;28;8860;-77
2023/07/20 02:27:39;;;;;;;;;8.60;8.60;;;;;20.73;67.06;98773.06;5079963;28;9722;-78
2023/07/20 02:30:10;;;;;;;;;10.20;9.20;;;;;20.71;67.41;98775.00;5089655;28;8863;-76
2023/07/20 02:32:39;;;;;;;;;10.00;8.40;;;;;20.65;67.30;98765.66;5071434;28;8857;-77
2023/07/20 02:35:09;;;;;;;;;7.80;7.80;;;;;20.64;66.82;98769.31;5071312;28;8870;-77
2023/07/20 02:37:39;;;;;;;;;10.40;10.40;;;;;20.53;66.95;98761.25;5054898;28;8862;-78
2023/07/20 02:40:09;;;;;;;;;11.20;10.60;;;;;20.33;67.24;98760.06;5051331;28;8879;-78
2023/07/20 02:42:39;;;;;;;;;11.60;11.20;;;;;20.41;68.13;98761.19;5051848;28;8840;-78
2023/07/20 02:45:08;;;;;;;;;11.40;11.40;;;;;20.36;67.64;98767.84;5063601;28;8946;-78
2023/07/20 02:47:37;;;;;;;;;12.80;12.20;;;;;20.38;67.29;98772.09;5022653;28;8849;-79
2023/07/20 02:50:09;;;;;;;;;12.40;11.40;;;;;20.43;67.87;98790.44;5070895;28;8858;-78
2023/07/20 02:52:39;;;;;;;;;9.20;9.20;;;;;20.43;67.93;98763.75;5022868;28;8826;-78
2023/07/20 02:55:09;;;;;;;;;9.20;9.20;;;;;20.54;67.42;98779.81;5054499;28;8857;-79
2023/07/20 02:57:38;;;;;;;;;12.00;8.80;;;;;20.59;68.33;98788.31;5035212;28;8830;-77
2023/07/20 03:00:08;;;;;;;;;8.80;7.80;;;;;20.71;67.66;98799.94;5073671;28;8858;-78
2023/07/20 03:02:37;;;;;;;;;9.00;9.00;;;;;20.80;67.98;98793.03;5070990;28;8884;-77
2023/07/20 03:05:07;;;;;;;;;9.60;9.00;;;;;20.82;68.17;98791.97;5071126;28;8858;-78
2023/07/20 03:07:36;;;;;;;;;8.80;8.80;;;;;20.82;67.09;98781.28;5054903;28;8892;-79
2023/07/20 03:10:09;;;;;;;;;10.20;9.60;;;;;20.89;67.51;98784.31;5088379;28;8910;-77
2023/07/20 03:12:38;;;;;;;;;10.40;8.00;;;;;20.91;66.25;98789.53;5087485;28;8962;-77
2023/07/20 03:15:09;;;;;;;;;11.20;10.80;;;;;20.95;67.73;98786.53;5085073;28;8884;-77
2023/07/20 03:17:38;;;;;;;;;10.00;10.00;;;;;21.02;68.14;98785.09;5098988;28;9114;-78
2023/07/20 03:20:10;;;;;;;;;8.60;8.00;;;;;21.00;67.42;98792.41;5089461;28;8863;-78
2023/07/20 03:22:39;;;;;;;;;14.80;13.60;;;;;21.03;66.37;98808.19;5086350;28;8861;-78
2023/07/20 03:25:10;;;;;;;;;16.80;15.60;;;;;20.64;66.37;98834.22;5034870;28;8980;-78
2023/07/20 03:27:39;;;;;;;;;8.20;8.20;;;;;20.25;66.93;98848.69;5051761;28;8850;-79
2023/07/20 03:30:09;;;;;;;;;7.20;7.20;;;;;19.89;67.63;98877.84;5068615;28;8873;-77
2023/07/20 03:32:39;;;;;;;;;8.40;8.40;;;;;19.51;69.34;98915.16;5068387;28;8866;-79
2023/07/20 03:35:09;;;;;;;;;7.00;6.00;;;;;19.52;69.55;98941.75;5079244;28;8860;-78
2023/07/20 03:37:38;;;;;;;;;7.60;7.60;;;;;19.67;68.88;98947.84;5054620;28;8879;-78
2023/07/20 03:40:09;;;;;;;;;7.60;7.60;;;;;19.72;69.42;98952.84;5089677;28;8863;-78
2023/07/20 03:42:38;;;;;;;;;7.40;6.80;;;;;19.67;70.04;98936.34;5067719;28;8934;-78
2023/07/20 03:45:08;;;;;;;;;12.40;11.20;;;;;19.56;70.98;98946.88;5047565;28;8852;-78
2023/07/20 03:47:37;;;;;;;;;19.60;19.40;;;;;19.79;70.93;98982.63;5047719;28;8891;-78
2023/07/20 03:50:09;;;;;;;;;31.20;30.80;;;;;19.95;70.16;98977.94;5014322;28;8962;-80
2023/07/20 03:52:38;;;;;;;;;18.20;17.20;;;;;19.85;70.50;98977.72;5066796;28;8820;-79
2023/07/20 03:55:09;;;;;;;;;12.20;11.60;;;;;20.02;69.65;98989.03;5087981;28;8866;-80
2023/07/20 03:57:39;;;;;;;;;15.80;14.60;;;;;20.01;69.90;99006.00;5104613;28;8981;-78
2023/07/20 04:00:09;;;;;;;;;15.80;10.80;;;;;19.96;69.84;99002.81;5043958;28;8896;-79
2023/07/20 04:02:41;;;;;;;;;14.80;12.40;;;;;19.93;67.69;99017.19;5068855;28;8850;-79
2023/07/20 04:05:11;;;;;;;;;25.60;24.20;;;;;19.96;69.21;99024.16;5033944;28;8917;-80
2023/07/20 04:07:40;;;;;;;;;12.00;11.00;;;;;20.06;68.93;99014.53;5051083;28;8862;-81
2023/07/20 04:10:11;;;;;;;;;12.00;10.60;;;;;20.05;67.82;99013.69;5071578;28;8852;-79
2023/07/20 04:12:40;;;;;;;;;12.60;12.00;;;;;19.90;67.31;99012.94;5087548;28;8848;-79
2023/07/20 04:15:10;;;;;;;;;26.40;25.00;;;;;20.12;66.87;99013.25;5087393;28;8994;-78
2023/07/20 04:17:39;;;;;;;;;14.40;14.00;;;;;20.29;67.03;99000.50;5083968;28;9723;-79
2023/07/20 04:20:09;;;;;;;;;13.00;11.80;;;;;20.22;66.86;98996.53;5050466;28;8848;-79
2023/07/20 04:22:38;;;;;;;;;14.00;12.40;;;;;20.20;65.99;98990.44;5033743;28;9649;-79
2023/07/20 04:25:11;;;;;;;;;13.60;13.00;;;;;20.20;66.79;98998.44;5067091;28;9093;-78
2023/07/20 04:27:40;;;;;;;;;25.20;24.00;;;;;19.93;66.00;99014.53;5080879;28;8863;-79
2023/07/20 04:30:11;;;;;;;;;12.40;11.60;;;;;20.22;66.24;99023.22;5087325;28;8960;-82
2023/07/20 04:32:45;;;;;;;;;13.60;12.20;;;;;20.33;65.92;99018.94;5070920;28;8874;-79
2023/07/20 04:35:19;;;;;;;;;19.60;19.40;;;;;20.52;65.63;99022.06;5069440;28;8951;-78
2023/07/20 04:37:50;;;;;;;;;15.20;15.20;;;;;20.75;66.02;99004.38;5073690;28;8840;-78
2023/07/20 04:40:24;;;;;;;;;17.00;15.40;;;;;20.68;65.19;99001.28;5052389;28;8844;-79
2023/07/20 04:42:52;;;;;;;;;14.00;13.00;;;;;20.94;65.35;98995.06;5056132;28;8895;-80
2023/07/20 04:45:22;;;;;;;;;12.40;12.20;;;;;21.02;64.04;98987.34;5069327;28;8876;-78
2023/07/20 04:47:52;;;;;;;;;13.60;13.40;;;;;20.87;65.99;98975.91;5048840;28;9618;-80
2023/07/20 04:50:20;;;;;;;;;17.20;16.00;;;;;20.70;64.17;98981.63;5026128;28;8860;-77
2023/07/20 04:52:50;;;;;;;;;13.40;13.40;;;;;20.87;65.70;98957.22;5026078;28;8852;-79
2023/07/20 04:55:21;;;;;;;;;16.40;15.40;;;;;20.83;62.75;98955.75;5025962;28;8880;-79
2023/07/20 04:57:52;;;;;;;;;16.00;15.20;;;;;20.29;64.86;98955.13;5009557;28;8860;-80
2023/07/20 05:00:22;;;;;;;;;15.40;15.20;;;;;20.15;65.34;98960.53;5012982;28;8834;-81
2023/07/20 05:02:51;;;;;;;;;15.40;15.00;;;;;20.13;65.29;98961.63;5007636;28;8922;-79
2023/07/20 05:05:20;;;;;;;;;15.20;13.00;;;;;20.20;65.46;98971.75;4989606;28;8881;-78
2023/07/20 05:07:49;;;;;;;;;15.40;14.20;;;;;20.49;65.80;98983.06;4989916;28;8969;-78
2023/07/20 05:10:18;;;;;;;;;16.00;14.20;;;;;20.70;65.81;98995.00;5006025;28;8854;-77
2023/07/20 05:12:48;;;;;;;;;15.20;14.20;;;;;20.91;65.14;99013.94;4977593;28;8921;-80
2023/07/20 05:15:18;;;;;;;;;13.80;13.80;;;;;20.94;64.66;99017.28;5026423;28;8851;-77
2023/07/20 05:17:48;;;;;;;;;12.40;11.80;;;;;21.08;66.20;99015.44;5012342;28;8899;-77
2023/07/20 05:20:17;;;;;;;;;14.80;13.00;;;;;21.14;65.46;99018.50;5046026;28;8895;-78
2023/07/20 05:22:46;;;;;;;;;18.20;17.20;;;;;20.94;64.71;99008.44;5087499;28;8874;-78
2023/07/20 05:25:18;;;;;;;;;21.20;21.00;;;;;21.02;65.75;99008.72;5022399;28;8997;-79
2023/07/20 05:27:47;;;;;;;;;20.20;20.00;;;;;21.18;65.89;99009.31;5066689;28;8862;-79
2023/07/20 05:30:15;;;;;;;;;26.40;24.20;;;;;20.99;64.89;99009.81;5067036;28;8884;-79
2023/07/20 05:32:50;;;;;;;;;25.20;25.20;;;;;20.70;66.67;99003.84;5060531;28;8887;-77
2023/07/20 05:35:19;;;;;;;;;29.00;25.40;;;;;20.75;67.13;99008.88;5045537;28;8865;-82
2023/07/20 05:37:49;;;;;;;;;26.80;26.20;;;;;20.80;67.13;98996.03;5065568;28;8834;-79
2023/07/20 05:40:19;;;;;;;;;29.20;28.00;;;;;20.83;66.42;98993.97;5058022;28;9044;-80
2023/07/20 05:42:51;;;;;;;;;29.00;26.80;;;;;20.74;67.70;98991.97;5069162;28;8832;-79
2023/07/20 05:45:20;;;;;;;;;25.00;22.20;;;;;21.01;66.67;98983.81;5069401;28;8979;-80
2023/07/20 05:47:51;;;;;;;;;23.40;22.60;;;;;20.87;67.04;98971.41;5053250;28;8940;-80
2023/07/20 05:50:19;;;;;;;;;25.40;24.00;;;;;21.17;66.98;98958.63;5052445;28;9048;-79
2023/07/20 05:52:49;;;;;;;;;19.40;19.40;;;;;21.35;66.06;98956.38;5036437;28;8848;-77
2023/07/20 05:55:17;;;;;;;;;24.60;23.00;;;;;21.47;66.20;98946.59;5035510;28;8872;-78
2023/07/20 05:57:47;;;;;;;;;24.00;21.00;;;;;21.53;64.63;98941.63;5052292;28;8955;-79
2023/07/20 06:00:19;;;;;;;;;23.00;23.00;;;;;21.71;65.16;98936.75;5035296;28;8904;-80
2023/07/20 06:02:48;;;;;;;;;22.00;22.00;;;;;21.80;64.67;98938.66;5052177;28;8852;-79
2023/07/20 06:05:20;;;;;;;;;17.20;17.20;;;;;21.84;64.04;98926.78;5019844;28;8843;-77
2023/07/20 06:07:49;;;;;;;;;23.20;21.40;;;;;21.85;63.95;98924.94;5068123;28;8844;-81
2023/07/20 06:10:17;;;;;;;;;19.40;19.00;;;;;21.80;64.09;98930.66;5052084;28;8959;-78
2023/07/20 06:12:46;;;;;;;;;20.40;20.40;;;;;21.93;64.11;98932.38;5036401;28;8844;-79
2023/07/20 06:15:29;;;;;;;;;16.80;16.80;;;;;21.99;61.91;98929.22;5059242;28;9009;-78
2023/07/20 06:17:58;;;;;;;;;17.80;16.20;;;;;21.86;63.69;98921.28;5070517;28;8839;-77
2023/07/20 06:20:29;;;;;;;;;20.20;19.20;;;;;22.00;64.19;98915.72;5071607;28;8850;-80
2023/07/20 06:22:58;;;;;;;;;14.80;14.40;;;;;22.08;62.49;98912.44;5071509;28;9599;-75
2023/07/20 06:25:27;;;;;;;;;16.80;16.40;;;;;22.32;62.08;98927.56;5070544;28;8842;-78
2023/07/20 06:27:57;;;;;;;;;17.40;16.20;;;;;22.40;63.43;98931.31;5070958;28;8855;-81
2023/07/20 06:30:26;;;;;;;;;21.20;20.60;;;;;22.55;62.17;98936.44;5071254;28;8884;-80
2023/07/20 06:32:55;;;;;;;;;16.40;15.60;;;;;22.68;61.79;98931.78;5054297;28;8853;-80
2023/07/20 06:35:23;;;;;;;;;14.00;13.00;;;;;22.74;61.67;98928.59;5070963;28;8839;-79
2023/07/20 06:37:54;;;;;;;;;16.20;15.60;;;;;22.99;62.67;98923.91;5053400;28;8830;-78
2023/07/20 06:40:22;;;;;;;;;16.40;16.20;;;;;22.92;58.91;98920.03;5071411;28;8842;-78
2023/07/20 06:42:55;;;;;;;;;24.60;23.80;;;;;22.57;58.85;98919.25;5053488;28;8850;-78
2023/07/20 06:45:26;;;;;;;;;23.00;23.00;;;;;22.51;59.59;98917.06;5069348;28;8850;-76
2023/07/20 06:47:55;;;;;;;;;21.20;19.20;;;;;22.58;57.75;98914.72;5069952;28;8866;-76
2023/07/20 06:50:24;;;;;;;;;17.40;15.40;;;;;22.06;59.29;98917.06;5069334;28;8854;-80
2023/07/20 06:52:58;;;;;;;;;13.20;13.00;;;;;22.39;58.94;98918.91;5069561;28;8939;-84
2023/07/20 06:55:27;;;;;;;;;16.40;15.00;;;;;22.61;57.89;98922.53;5069231;28;8912;-80
2023/07/20 06:57:57;;;;;;;;;15.40;13.00;;;;;22.31;57.79;98917.81;5019535;28;8885;-79
2023/07/20 07:00:27;;;;;;;;;11.40;10.60;;;;;22.56;57.38;98919.34;5070322;28;8917;-79
2023/07/20 07:02:57;;;;;;;;;17.40;16.60;;;;;22.34;57.56;98909.56;5070361;28;8900;-80
2023/07/20 07:05:26;;;;;;;;;13.40;13.40;;;;;22.46;57.29;98908.53;5072221;28;8975;-76
2023/07/20 07:08:06;;;;;;;;;15.80;15.20;;;;;22.44;56.58;98921.22;5076127;28;8865;-79
2023/07/20 07:10:37;;;;;;;;;13.00;13.00;;;;;22.50;57.34;98926.06;5076236;28;8921;-80
2023/07/20 07:13:06;;;;;;;;;13.80;12.80;;;;;22.54;55.58;98926.69;5069309;28;9581;-84
2023/07/20 07:15:35;;;;;;;;;15.40;14.80;;;;;21.81;58.26;98926.16;5070261;28;9699;-78
2023/07/20 07:18:06;;;;;;;;;18.00;17.60;;;;;21.73;59.96;98925.88;5069888;28;8866;-78
2023/07/20 07:20:36;;;;;;;;;18.00;17.80;;;;;21.87;59.67;98927.50;5070692;28;8874;-82
2023/07/20 07:23:06;;;;;;;;;14.80;14.20;;;;;21.99;59.49;98931.88;5069343;28;8934;-79
2023/07/20 07:25:36;;;;;;;;;18.00;18.00;;;;;21.69;61.45;98919.06;5068752;28;9764;-80
2023/07/20 07:28:06;;;;;;;;;17.80;17.60;;;;;21.64;62.16;98922.13;5052849;28;8847;-78
2023/07/20 07:30:34;;;;;;;;;14.60;14.60;;;;;21.19;62.66;98927.28;5070440;28;8863;-81
2023/07/20 07:33:03;;;;;;;;;18.00;18.00;;;;;20.96;63.27;98923.69;5070561;28;8846;-78
2023/07/20 07:35:32;;;;;;;;;16.80;16.20;;;;;21.09;62.67;98927.13;5072289;28;9621;-79
2023/07/20 07:38:01;;;;;;;;;16.60;16.60;;;;;20.88;63.38;98941.09;5023925;28;9658;-80
2023/07/20 07:40:42;;;;;;;;;13.40;13.40;;;;;20.82;64.41;98940.66;5039923;28;8850;-81
2023/07/20 07:43:11;;;;;;;;;16.80;15.60;;;;;20.74;64.94;98951.06;5068533;28;8854;-82
2023/07/20 07:45:40;;;;;;;;;18.00;18.00;;;;;20.72;65.13;98956.50;5032576;28;8869;-78
2023/07/20 07:48:11;;;;;;;;;17.00;16.00;;;;;20.88;65.57;98956.28;5048227;28;8876;-78
2023/07/20 07:50:40;;;;;;;;;16.80;16.80;;;;;21.22;64.61;98959.16;5080691;28;8888;-78
2023/07/20 07:53:10;;;;;;;;;18.00;15.20;;;;;21.25;63.98;98958.91;5051638;28;8854;-83
2023/07/20 07:55:39;;;;;;;;;14.80;14.00;;;;;21.31;63.33;98954.91;5068522;28;8859;-82
2023/07/20 07:58:09;;;;;;;;;17.20;15.40;;;;;21.51;61.92;98948.06;5068378;28;8869;-82
2023/07/20 08:00:38;;;;;;;;;16.20;16.20;;;;;21.84;61.64;98948.19;5070951;28;8869;-81
2023/07/20 08:03:08;;;;;;;;;13.00;13.00;;;;;22.29;60.99;98965.28;5068148;28;8985;-79
2023/07/20 08:05:37;;;;;;;;;14.40;14.00;;;;;22.29;59.92;98957.25;5052313;28;8993;-81
2023/07/20 08:08:06;;;;;;;;;16.60;14.80;;;;;22.17;59.26;98965.25;5068742;28;9681;-78
2023/07/20 08:10:35;;;;;;;;;18.80;14.80;;;;;22.45;58.93;98960.41;5051487;28;8862;-78
2023/07/20 08:13:04;;;;;;;;;15.00;15.00;;;;;22.40;58.52;98957.25;5069017;28;8988;-82
2023/07/20 08:15:35;;;;;;;;;14.20;14.20;;;;;22.63;58.08;98954.56;5067543;28;8870;-78
2023/07/20 08:18:04;;;;;;;;;11.80;11.80;;;;;22.71;57.81;98952.09;5017168;28;8897;-76
2023/07/20 08:20:35;;;;;;;;;12.80;12.60;;;;;22.59;58.03;98954.78;5067680;28;8850;-79
2023/07/20 08:23:04;;;;;;;;;14.60;12.40;;;;;22.54;57.27;98951.66;5066994;28;9668;-78
2023/07/20 08:25:33;;;;;;;;;15.20;12.60;;;;;22.76;56.82;98955.25;5047717;28;8899;-77
2023/07/20 08:28:02;;;;;;;;;11.40;11.00;;;;;22.88;57.66;98942.69;5041487;28;8850;-77
2023/07/20 08:30:43;;;;;;;;;12.00;12.00;;;;;23.26;55.44;98944.91;5065873;28;8858;-77
2023/07/20 08:33:13;;;;;;;;;13.60;10.60;;;;;23.31;55.37;98940.00;5049052;28;8950;-79
2023/07/20 08:35:42;;;;;;;;;11.40;11.20;;;;;22.96;56.18;98948.31;5043207;28;9604;-79
2023/07/20 08:38:12;;;;;;;;;12.20;11.80;;;;;22.83;55.02;98945.75;5056287;28;9112;-77
2023/07/20 08:40:42;;;;;;;;;9.40;9.40;;;;;22.88;56.95;98945.34;5066154;28;8962;-77
2023/07/20 08:43:12;;;;;;;;;11.60;11.20;;;;;22.22;56.34;98951.47;5065980;28;8886;-75
2023/07/20 08:45:42;;;;;;;;;11.80;11.00;;;;;22.29;56.54;98952.75;5049323;28;9580;-75
2023/07/20 08:48:13;;;;;;;;;12.80;12.20;;;;;22.64;57.06;98951.75;5062375;28;8919;-76
2023/07/20 08:50:43;;;;;;;;;13.20;11.60;;;;;21.60;58.61;98955.44;5046669;28;8881;-76
2023/07/20 08:53:14;;;;;;;;;10.60;10.20;;;;;22.34;58.02;98952.41;5029252;28;8891;-76
2023/07/20 08:55:45;;;;;;;;;10.80;10.80;;;;;22.40;57.14;98959.94;5045813;28;8842;-76
2023/07/20 08:58:14;;;;;;;;;14.40;12.80;;;;;22.61;56.93;98958.19;5045684;28;9973;-76
2023/07/20 09:00:45;;;;;;;;;11.60;11.60;;;;;23.15;56.04;98950.31;5061793;28;8832;-77
2023/07/20 09:03:15;;;;;;;;;13.80;13.40;;;;;22.68;55.64;98955.03;5065820;28;8848;-75
2023/07/20 09:05:45;;;;;;;;;12.20;12.00;;;;;23.04;58.03;98959.25;5049325;28;8867;-80
2023/07/20 09:08:14;;;;;;;;;12.00;11.40;;;;;23.55;55.45;98955.91;5056848;28;8872;-78
2023/07/20 09:10:43;;;;;;;;;10.00;10.00;;;;;23.92;53.97;98958.13;5054413;28;8846;-76
2023/07/20 09:13:15;;;;;;;;;8.80;8.80;;;;;23.99;52.41;98950.38;5070087;28;8868;-75
2023/07/20 09:15:49;;;;;;;;;8.00;7.40;;;;;23.22;50.56;98953.34;5072637;28;9690;-77
2023/07/20 09:18:26;;;;;;;;;11.80;10.20;;;;;23.28;52.17;98959.03;5071373;28;9012;-77
2023/07/20 09:21:00;;;;;;;;;14.40;12.60;;;;;23.24;53.95;98946.84;5071107;28;8842;-80
2023/07/20 09:23:33;;;;;;;;;10.60;10.00;;;;;23.10;52.58;98952.53;5069299;28;8831;-80
2023/07/20 09:26:12;;;;;;;;;9.60;9.60;;;;;23.69;52.31;98957.41;5069563;28;8823;-77
2023/07/20 09:28:43;;;;;;;;;10.20;10.00;;;;;24.09;52.08;98959.34;5036360;28;8850;-77
2023/07/20 09:31:20;;;;;;;;;9.80;9.80;;;;;24.48;50.78;98956.00;5052795;28;9028;-76
2023/07/20 09:33:53;;;;;;;;;12.80;11.60;;;;;24.13;51.19;98946.53;5052772;28;8862;-79
2023/07/20 09:36:24;;;;;;;;;16.20;12.00;;;;;24.45;49.88;98945.53;5069680;28;8850;-79
2023/07/20 09:39:13;;;;;;;;;10.00;10.00;;;;;24.66;49.60;98951.69;5052317;28;8938;-76
2023/07/20 09:42:01;;;;;;;;;8.60;8.40;;;;;24.48;47.50;98945.25;5068883;28;8967;-74
2023/07/20 09:44:34;;;;;;;;;8.80;8.60;;;;;24.73;47.91;98952.00;5036130;28;8916;-76
2023/07/20 09:47:07;;;;;;;;;10.20;10.20;;;;;24.95;46.56;98945.56;5068933;28;9627;-75
2023/07/20 09:49:40;;;;;;;;;9.40;9.00;;;;;25.18;45.87;98948.81;5049783;28;8866;-76
2023/07/20 09:52:14;;;;;;;;;10.60;10.40;;;;;25.18;46.64;98938.06;5068538;28;8854;-78
2023/07/20 09:55:04;;;;;;;;;10.80;10.80;;;;;25.35;46.52;98941.06;5035306;28;8972;-76
2023/07/20 09:57:34;;;;;;;;;9.00;8.80;;;;;25.59;47.72;98943.34;5052135;28;8885;-77
2023/07/20 10:00:09;;;;;;;;;11.60;11.00;;;;;25.66;45.50;98948.00;5052237;28;8862;-77
2023/07/20 10:02:46;;;;;;;;;9.40;9.00;;;;;25.48;46.22;98942.47;5068128;28;8847;-77
2023/07/20 10:05:17;;;;;;;;;9.40;8.80;;;;;25.04;45.73;98939.34;5036285;28;8878;-77
2023/07/20 10:07:49;;;;;;;;;8.20;8.20;;;;;25.08;44.95;98939.91;5070157;28;8854;-77
2023/07/20 10:10:19;;;;;;;;;8.20;7.80;;;;;24.99;44.33;98946.13;5086732;28;8862;-77
2023/07/20 10:12:50;;;;;;;;;9.00;9.00;;;;;25.01;44.71;98954.91;5071436;28;8834;-78
2023/07/20 10:15:25;;;;;;;;;7.60;7.20;;;;;25.20;43.75;98960.28;5068405;28;8904;-76
2023/07/20 10:18:02;;;;;;;;;8.00;7.20;;;;;25.35;43.75;98954.53;5051551;28;8871;-78
2023/07/20 10:20:32;;;;;;;;;8.80;8.00;;;;;25.23;44.23;98946.56;5018311;28;8866;-77
2023/07/20 10:23:04;;;;;;;;;7.60;7.60;;;;;25.00;45.06;98951.38;5069064;28;8850;-75
2023/07/20 10:25:33;;;;;;;;;9.80;9.80;;;;;24.90;44.91;98956.69;5052031;28;8896;-76
2023/07/20 10:28:03;;;;;;;;;8.00;7.40;;;;;25.24;43.92;98961.69;5067931;28;8865;-76
2023/07/20 10:30:32;;;;;;;;;8.20;8.20;;;;;25.55;42.72;98956.22;4985327;28;8863;-76
2023/07/20 10:33:03;;;;;;;;;8.60;8.00;;;;;25.61;42.11;98957.50;5067177;28;8921;-77
2023/07/20 10:35:52;;;;;;;;;7.80;6.40;;;;;25.29;43.38;98951.38;5067729;28;8916;-75
2023/07/20 10:38:21;;;;;;;;;6.60;6.60;;;;;24.65;43.64;98965.25;5067579;28;8844;-75
2023/07/20 10:40:56;;;;;;;;;7.20;7.20;;;;;24.71;44.61;98962.00;5049967;28;8876;-75
2023/07/20 10:43:25;;;;;;;;;11.20;11.20;;;;;24.82;45.03;98967.31;5051347;28;8890;-76
2023/07/20 10:45:54;;;;;;;;;10.00;9.80;;;;;24.61;46.65;98966.53;5072168;28;8855;-77
2023/07/20 10:48:26;;;;;;;;;10.60;10.60;;;;;24.87;44.89;98978.50;5087374;28;8840;-75
2023/07/20 10:51:14;;;;;;;;;8.60;8.60;;;;;25.09;44.84;98966.63;5047536;28;8866;-76
2023/07/20 10:53:43;;;;;;;;;10.20;10.20;;;;;24.94;45.86;98965.34;5066601;28;8856;-79
2023/07/20 10:56:15;;;;;;;;;10.80;8.80;;;;;24.71;45.18;98965.53;5087549;28;8840;-77
2023/07/20 10:58:44;;;;;;;;;10.40;10.40;;;;;25.13;44.78;98964.53;5070536;28;8940;-75
2023/07/20 11:01:16;;;;;;;;;7.80;7.80;;;;;25.63;45.65;98956.34;5054056;28;8948;-77
2023/07/20 11:03:52;;;;;;;;;9.80;9.00;;;;;25.60;44.08;98959.31;5070204;28;8888;-76
2023/07/20 11:06:43;;;;;;;;;9.80;9.80;;;;;25.60;45.20;98962.00;5087503;28;8848;-76
2023/07/20 11:09:15;;;;;;;;;9.80;9.80;;;;;25.30;44.85;98969.22;5011737;28;8847;-77
2023/07/20 11:11:47;;;;;;;;;9.80;9.80;;;;;25.56;44.95;98962.44;5086359;28;8852;-76
2023/07/20 11:14:22;;;;;;;;;11.60;9.80;;;;;26.42;45.05;98965.94;5070178;28;8890;-76
2023/07/20 11:16:53;;;;;;;;;13.40;12.40;;;;;26.55;42.70;98951.28;5087207;28;9542;-77
2023/07/20 11:19:25;;;;;;;;;10.40;9.40;;;;;26.42;43.16;98957.03;5086735;28;8864;-75
2023/07/20 11:21:58;;;;;;;;;8.80;8.60;;;;;26.00;42.59;98954.75;5087255;28;9566;-77
2023/07/20 11:24:32;;;;;;;;;9.00;9.00;;;;;26.33;42.61;98947.97;5087004;28;8943;-77
2023/07/20 11:27:02;;;;;;;;;8.60;8.20;;;;;27.07;42.67;98950.75;5086457;28;8848;-76
2023/07/20 11:29:31;;;;;;;;;10.40;9.60;;;;;26.67;42.63;98945.56;5053461;28;8859;-76
2023/07/20 11:32:03;;;;;;;;;9.80;8.40;;;;;26.80;43.52;98942.50;5053482;28;8944;-76
2023/07/20 11:34:36;;;;;;;;;12.80;12.80;;;;;26.65;42.35;98944.03;5052943;28;8832;-76
2023/07/20 11:37:07;;;;;;;;;9.80;9.80;;;;;26.46;43.09;98944.94;5068832;28;8890;-78
2023/07/20 11:39:39;;;;;;;;;12.20;11.20;;;;;27.17;41.75;98936.16;5046453;28;8904;-78
2023/07/20 11:42:09;;;;;;;;;9.40;8.20;;;;;26.43;43.16;98932.59;5029421;28;8857;-79
2023/07/20 11:44:39;;;;;;;;;8.80;8.60;;;;;26.41;42.84;98939.97;5029880;28;8857;-76
2023/07/20 11:47:10;;;;;;;;;10.80;10.40;;;;;26.54;42.65;98933.44;5046495;28;8845;-78
2023/07/20 11:49:41;;;;;;;;;11.80;10.80;;;;;26.56;42.35;98931.44;5029415;28;8853;-80